Create Custom Reports and Graphics: Custom Report

Modesto Jr College

Current Conditions

1/17/21 7:00 PM (-08:00)
Updated Every 15 Minutes
Temp 51.0 °F   4.9
RH 77 %   3
Dew Pt 43.9 °F   3.8
Wind Spd 0.4 mph
Wind Dir NNW | 346 °
Wind Gust 1.3 mph   2.4
Latest Rain 0.00 In
Daily Rain 0.00 In
Daily Min Temp 38.2 °F   2.7
Daily Max Temp 73.2 °F   3.1

Last 24 Hours

Modesto Jr College

15 Minute Data | America/Los_Angeles
as of 1/17/21 7:14 PM PST
Date & Time Temp (°F) RH (%) Dew Pt (°F) Wind Spd (mph) Wind Dir (°) Wind Gust (mph) Latest Rain (In) Daily Rain (In) Daily Min Temp (°F) Daily Max Temp (°F)
1/17/21 - 1900 51.0 77 43.9 0.4 NNW | 346 1.3 0.00 0.00 38.2 73.2
1/17/21 - 1845 51.4 77 44.4 0.1 WSW | 251 1.3 0.00 0.00 38.2 73.2
1/17/21 - 1830 52.6 74 44.4 0.1 W | 270 1.3 0.00 0.00 38.2 73.2
1/17/21 - 1815 54.2 69 44.3 0.1 N | 5 1.3 0.00 0.00 38.2 73.2
1/17/21 - 1800 56.2 65 44.9 0.0 N | 0 0.0 0.00 0.00 38.2 73.2
1/17/21 - 1745 57.7 63 45.1 0.4 ESE | 107 1.8 0.00 0.00 38.2 73.2
1/17/21 - 1730 60.4 57 45.0 0.0 NW | 305 0.4 0.00 0.00 38.2 73.2
1/17/21 - 1715 63.9 51 45.5 0.4 W | 264 1.1 0.00 0.00 38.2 73.2
1/17/21 - 1700 67.2 42 43.2 0.7 SW | 229 1.8 0.00 0.00 38.2 73.2
1/17/21 - 1645 68.2 42 44.5 1.5 WSW | 248 3.1 0.00 0.00 38.2 73.2
1/17/21 - 1630 70.1 41 45.3 2.3 WSW | 251 4.2 0.00 0.00 38.2 73.2
1/17/21 - 1615 70.8 40 45.5 0.2 ESE | 113 1.5 0.00 0.00 38.2 73.2
1/17/21 - 1600 70.6 41 46.0 0.7 SW | 222 2.6 0.00 0.00 38.2 73.2
1/17/21 - 1545 71.4 39 45.5 0.5 SSE | 154 1.8 0.00 0.00 38.2 73.2
1/17/21 - 1530 71.6 40 46.0 0.5 S | 189 3.1 0.00 0.00 38.2 73.2
1/17/21 - 1515 71.8 40 46.1 0.7 S | 186 4.6 0.00 0.00 38.2 73.2
1/17/21 - 1500 71.5 40 46.1 2.0 SSW | 198 5.7 0.00 0.00 38.2 73.2
1/17/21 - 1445 72.5 39 46.2 2.4 WSW | 249 4.4 0.00 0.00 38.2 73.2
1/17/21 - 1430 71.8 40 46.4 1.7 WSW | 258 3.7 0.00 0.00 38.2 72.7
1/17/21 - 1415 69.4 44 46.3 1.6 NE | 52 4.6 0.00 0.00 38.2 70.5
1/17/21 - 1400 69.8 45 47.5 1.5 NNE | 26 4.8 0.00 0.00 38.2 70.5
1/17/21 - 1345 68.4 46 46.6 1.8 ENE | 67 5.9 0.00 0.00 38.2 69.9
1/17/21 - 1330 68.4 46 46.8 2.4 NNW | 334 6.6 0.00 0.00 38.2 69.9
1/17/21 - 1315 67.7 48 47.4 2.5 NNW | 337 7.0 0.00 0.00 38.2 69.3
1/17/21 - 1300 67.5 48 47.4 2.3 N | 354 6.4 0.00 0.00 38.2 69.3
1/17/21 - 1245 68.6 48 47.9 1.8 SW | 234 4.6 0.00 0.00 38.2 69.3
1/17/21 - 1230 66.8 51 47.9 1.3 E | 98 3.1 0.00 0.00 38.2 68.4
1/17/21 - 1215 66.6 51 48.1 1.7 SE | 144 4.2 0.00 0.00 38.2 67.2
1/17/21 - 1200 65.6 53 48.0 0.7 SE | 127 2.4 0.00 0.00 38.2 66.6
1/17/21 - 1145 64.1 58 48.9 1.2 NNW | 347 3.1 0.00 0.00 38.2 65.0
1/17/21 - 1130 64.5 58 49.3 1.5 WSW | 240 5.5 0.00 0.00 38.2 65.0
1/17/21 - 1115 63.2 62 50.2 2.5 WSW | 254 7.2 0.00 0.00 38.2 64.1
1/17/21 - 1100 61.1 69 51.0 2.2 WNW | 282 4.8 0.00 0.00 38.2 62.7
1/17/21 - 1045 59.3 74 51.1 1.0 NW | 307 3.7 0.00 0.00 38.2 60.4
1/17/21 - 1030 56.8 81 51.1 0.7 NNE | 23 2.2 0.00 0.00 38.2 58.1
1/17/21 - 1015 54.2 90 51.4 1.3 ENE | 60 3.3 0.00 0.00 38.2 55.8
1/17/21 - 1000 51.9 96 50.9 1.0 NNE | 15 2.8 0.00 0.00 38.2 53.0
1/17/21 - 0945 49.9 98 49.2 2.3 NE | 42 3.9 0.00 0.00 38.2 50.6
1/17/21 - 0930 48.4 98 47.8 2.3 NNE | 27 4.8 0.00 0.00 38.2 50.0
1/17/21 - 0915 47.8 98 47.2 3.7 NE | 41 5.3 0.00 0.00 38.2 50.0
1/17/21 - 0900 45.8 98 45.2 1.6 NE | 46 3.9 0.00 0.00 38.2 50.0
1/17/21 - 0845 44.0 98 43.4 0.2 NNE | 30 1.8 0.00 0.00 38.2 50.0
1/17/21 - 0830 43.0 98 42.4 0.3 W | 270 1.5 0.00 0.00 38.2 50.0
1/17/21 - 0815 41.1 97 40.4 0.8 S | 174 2.2 0.00 0.00 38.2 50.0
1/17/21 - 0800 39.7 97 38.9 2.1 WSW | 244 4.8 0.00 0.00 38.2 50.0
1/17/21 - 0745 40.4 97 39.6 1.0 WSW | 258 3.9 0.00 0.00 38.2 50.0
1/17/21 - 0730 40.6 97 39.9 0.3 WSW | 254 1.8 0.00 0.00 38.2 50.0
1/17/21 - 0715 40.3 97 39.5 0.9 NNE | 33 2.2 0.00 0.00 38.2 50.0
1/17/21 - 0700 38.6 97 37.8 0.7 NNW | 344 1.8 0.00 0.00 38.2 50.0
1/17/21 - 0645 38.7 97 37.9 1.3 W | 271 3.1 0.00 0.00 38.2 50.0
1/17/21 - 0630 38.8 97 38.0 0.6 WSW | 252 2.2 0.00 0.00 38.2 50.0
1/17/21 - 0615 38.8 96 37.9 0.5 W | 278 2.4 0.00 0.00 38.2 50.0
1/17/21 - 0600 39.1 96 38.1 0.5 SW | 236 2.4 0.00 0.00 38.7 50.0
1/17/21 - 0545 40.1 96 39.2 0.8 NW | 306 2.4 0.00 0.00 39.5 50.0
1/17/21 - 0530 40.3 97 39.5 0.6 NE | 55 2.4 0.00 0.00 39.5 50.0
1/17/21 - 0515 39.8 96 38.8 0.1 NE | 39 1.1 0.00 0.00 39.5 50.0
1/17/21 - 0500 40.5 96 39.6 0.4 NE | 39 1.3 0.00 0.00 40.2 50.0
1/17/21 - 0445 40.5 96 39.5 0.0 N | 0 0.0 0.00 0.00 40.3 50.0
1/17/21 - 0430 40.8 96 39.7 0.0 N | 0 0.0 0.00 0.00 40.4 50.0
1/17/21 - 0415 41.6 96 40.6 0.7 NE | 36 1.5 0.00 0.00 40.7 50.0
1/17/21 - 0400 41.0 96 39.9 0.0 N | 0 0.0 0.00 0.00 40.7 50.0
1/17/21 - 0345 41.1 96 40.0 1.7 WSW | 252 2.6 0.00 0.00 40.9 50.0
1/17/21 - 0330 41.6 96 40.4 2.2 WSW | 251 3.5 0.00 0.00 41.2 50.0
1/17/21 - 0315 42.5 95 41.3 1.0 WSW | 242 2.2 0.00 0.00 41.4 50.0
1/17/21 - 0300 43.0 96 41.9 0.0 N | 0 0.0 0.00 0.00 42.6 50.0
1/17/21 - 0245 43.0 95 41.7 0.1 NNW | 346 0.9 0.00 0.00 42.6 50.0
1/17/21 - 0230 43.6 95 42.2 0.8 N | 8 2.0 0.00 0.00 43.2 50.0
1/17/21 - 0215 44.3 94 42.8 0.3 SSW | 207 2.0 0.00 0.00 43.6 50.0
1/17/21 - 0200 44.2 93 42.3 0.7 SW | 215 1.8 0.00 0.00 43.9 50.0
1/17/21 - 0145 45.4 92 43.2 0.9 WSW | 242 2.6 0.00 0.00 44.6 50.0
1/17/21 - 0130 46.8 91 44.4 0.2 NE | 53 1.3 0.00 0.00 46.0 50.0
1/17/21 - 0115 48.7 90 45.9 0.9 ENE | 61 1.5 0.00 0.00 47.4 50.0
1/17/21 - 0100 49.1 91 46.7 2.4 E | 80 3.5 0.00 0.00 47.7 50.0
1/17/21 - 0045 48.1 92 45.8 2.1 E | 87 3.3 0.00 0.00 47.7 50.0
1/17/21 - 0030 48.6 89 45.4 1.3 ENE | 68 2.4 0.00 0.00 47.9 50.0
1/17/21 - 0015 49.8 89 46.7 2.6 E | 79 4.4 0.00 0.00 49.3 50.0
1/17/21 - 0000 49.4 89 46.4 2.1 ENE | 61 3.9 0.00 0.00 40.9 70.0
1/16/21 - 2345 49.6 89 46.4 2.8 ENE | 77 4.4 0.00 0.00 40.9 70.0
1/16/21 - 2330 50.6 85 46.3 1.8 E | 81 3.5 0.00 0.00 40.9 70.0
1/16/21 - 2315 51.0 85 46.8 2.9 E | 84 3.9 0.00 0.00 40.9 70.0
1/16/21 - 2300 50.7 85 46.5 2.5 E | 85 3.5 0.00 0.00 40.9 70.0
1/16/21 - 2245 51.6 82 46.5 2.2 ENE | 77 2.8 0.00 0.00 40.9 70.0
1/16/21 - 2230 52.1 83 47.0 2.6 E | 89 3.5 0.00 0.00 40.9 70.0
1/16/21 - 2215 51.6 84 46.9 3.1 E | 86 4.2 0.00 0.00 40.9 70.0
1/16/21 - 2200 50.0 87 46.4 2.7 E | 84 3.7 0.00 0.00 40.9 70.0
1/16/21 - 2145 49.7 85 45.5 2.0 ENE | 70 3.1 0.00 0.00 40.9 70.0
1/16/21 - 2130 50.2 88 46.6 2.2 E | 87 3.1 0.00 0.00 40.9 70.0
1/16/21 - 2115 49.2 88 45.9 1.6 ENE | 77 2.4 0.00 0.00 40.9 70.0
1/16/21 - 2100 49.4 86 45.6 0.7 NE | 50 1.8 0.00 0.00 40.9 70.0
1/16/21 - 2045 49.8 85 45.5 1.2 NE | 37 2.2 0.00 0.00 40.9 70.0
1/16/21 - 2030 50.5 83 45.6 0.7 ESE | 121 2.0 0.00 0.00 40.9 70.0
1/16/21 - 2015 52.2 80 46.1 0.8 WSW | 242 3.3 0.00 0.00 40.9 70.0
1/16/21 - 2000 54.0 78 47.1 1.3 SSW | 198 3.5 0.00 0.00 40.9 70.0
1/16/21 - 1945 55.9 73 47.4 3.5 SE | 137 7.0 0.00 0.00 40.9 70.0
1/16/21 - 1930 55.3 75 47.5 2.5 E | 82 3.9 0.00 0.00 40.9 70.0
1/16/21 - 1915 56.1 73 47.4 1.3 ENE | 61 3.5 0.00 0.00 40.9 70.0
1/16/21 - 1900 55.9 74 47.7 2.5 E | 97 3.7 0.00 0.00 40.9 70.0
Max 72.5 98 51.4 3.7 - 7.2 0.00 0.00 49.3 73.2
Avg 53.0 77 44.8 1.3 - 3.0 0.00 - - -
Min 38.6 39 37.8 0.0 - 0.0 0.00 0.00 38.2 50.0
Total - - - - - - 0.00 - - -

Last 7 Days

Modesto Jr College

Daily Data | America/Los_Angeles
as of 1/17/21 7:14 PM PST
Date Daily ETo (in)
1/16/21 0.062
1/15/21 0.041
1/14/21 0.042
1/13/21 0.055
1/12/21 0.029
1/11/21 0.035
1/10/21 0.026
Max 0.062
Min 0.026